Sto Camellia — D7LH — position and weather

sailwx.info

Track history (hours):
 
Tides and Currents Weather Stations Pressure Air Temp Water Temp Dewpoint Dewpoint Depression Visibility Wind Speed Wind Dir Waves Ship Positions

Sto Camellia

Last reported at 2018-May-20 07:53 UTC. Time now 2018-May-22 04:08 UTC.
Position N 01°20' E 103°19'.

Length 121 m; draft 6.7 m.

Type: Ship (hazmat cat C). MMSI: 440036000.

Date/timePositionNaut miles runAvg speedWind from/ knotsBaromVisibWave heightAir tempDewpointWater temp
2018-May-20 07:53N 01°20' E 103°19'511.6
2018-May-20 07:26N 01°17' E 103°23'511.1
2018-May-20 07:00N 01°14' E 103°27'611.7
2018-May-20 06:30N 01°12' E 103°32'612.1
2018-May-20 06:00N 01°11' E 103°38'612.3
2018-May-20 05:31N 01°08' E 103°44'612.7
2018-May-20 05:00N 01°11' E 103°50'713.3
2018-May-20 04:30N 01°14' E 103°56'713.2
2018-May-20 04:00N 01°16' E 104°02'5 8.8
2018-May-20 03:29N 01°19' E 104°05'4 8.7
2018-May-20 02:58N 01°22' E 104°02'4 9.1
2018-May-20 02:29N 01°24' E 103°58'4 8.6
2018-May-20 02:00N 01°26' E 103°54'0 0.7
2018-May-20 01:23N 01°26' E 103°54'0 0.0
2018-May-20 00:56N 01°26' E 103°54'0 0.0
2018-May-20 00:22N 01°26' E 103°54'0 0.0
2018-May-19 23:58N 01°26' E 103°54'0 0.0
2018-May-19 23:20N 01°26' E 103°54'0 0.0
2018-May-19 22:49N 01°26' E 103°54'0 0.0
2018-May-19 22:29N 01°26' E 103°54'0 0.0
2018-May-19 21:50N 01°26' E 103°54'0 0.0
2018-May-19 21:30N 01°26' E 103°54'0 0.0
2018-May-19 20:56N 01°26' E 103°54'0 0.0
2018-May-19 20:29N 01°26' E 103°54'0 0.0
2018-May-19 19:53N 01°26' E 103°54'0 0.0
2018-May-19 19:19N 01°26' E 103°54'0 0.0
2018-May-19 18:53N 01°26' E 103°54'0 0.0
2018-May-19 18:21N 01°26' E 103°54'0 0.5
2018-May-19 17:59N 01°26' E 103°54'4 7.7
2018-May-19 17:29N 01°24' E 103°57'510.2
2018-May-19 16:58N 01°22' E 104°02'4 9.0
2018-May-19 16:29N 01°19' E 104°06'1 2.0
2018-May-19 16:00N 01°19' E 104°06'0 0.0
2018-May-19 15:18N 01°19' E 104°06'0 0.0
2018-May-19 14:39N 01°19' E 104°06'0 0.1
2018-May-19 14:30N 01°19' E 104°06'0 0.0
2018-May-19 13:36N 01°19' E 104°06'0 0.1
2018-May-19 13:30N 01°19' E 104°06'0 0.1
2018-May-19 12:57N 01°19' E 104°06'0 0.1
2018-May-19 12:27N 01°19' E 104°07'0 0.1
2018-May-19 11:42N 01°19' E 104°07'0 0.0
2018-May-19 11:24N 01°19' E 104°07'0 0.0
2018-May-19 10:57N 01°19' E 104°07'0 0.1
2018-May-19 10:27N 01°19' E 104°07'0 0.2
2018-May-19 10:00N 01°19' E 104°06'0 0.0
2018-May-19 09:15N 01°19' E 104°06'0 0.0
2018-May-19 07:48N 01°19' E 104°06'0 0.0
2018-May-19 07:30N 01°19' E 104°06'0 0.0
2018-May-19 07:00N 01°19' E 104°06'0 0.0
2018-May-19 06:18N 01°19' E 104°06'0 0.0
2018-May-19 06:00N 01°19' E 104°06'0 0.1
2018-May-19 05:18N 01°19' E 104°07'0 0.1
2018-May-19 04:51N 01°19' E 104°07'0 0.0
2018-May-19 03:33N 01°19' E 104°07'0 0.0
2018-May-19 03:09N 01°19' E 104°07'0 0.0
2018-May-19 02:54N 01°19' E 104°07'0 0.0
2018-May-19 02:30N 01°19' E 104°07'0 0.0
2018-May-19 01:57N 01°19' E 104°07'0 0.1
2018-May-19 01:24N 01°19' E 104°07'0 0.0
2018-May-19 00:56N 01°19' E 104°07'0 0.1
2018-May-19 00:05N 01°19' E 104°07'0 0.0
2018-May-18 23:51N 01°19' E 104°07'0 0.0
2018-May-18 23:27N 01°19' E 104°07'0 0.0
2018-May-18 22:58N 01°19' E 104°07'0 0.0
2018-May-18 22:27N 01°19' E 104°07'0 0.0
2018-May-18 21:54N 01°19' E 104°07'0 0.0
2018-May-18 21:27N 01°19' E 104°07'0 0.0
2018-May-18 20:45N 01°19' E 104°07'0 0.0
2018-May-18 20:30N 01°19' E 104°07'0 0.0
2018-May-18 19:51N 01°19' E 104°07'0 0.0
2018-May-18 19:27N 01°19' E 104°07'0 0.0
2018-May-18 18:57N 01°19' E 104°07'0 0.0
2018-May-18 18:30N 01°19' E 104°07'0 0.1
2018-May-18 17:57N 01°19' E 104°07'0 0.0
2018-May-18 17:26N 01°19' E 104°07'0 0.1
2018-May-18 16:36N 01°19' E 104°07'0 0.1
2018-May-18 16:09N 01°19' E 104°06'0 0.0
2018-May-18 16:00N 01°19' E 104°06'1 1.3
2018-May-18 15:30N 01°19' E 104°06'4 7.9
2018-May-18 15:00N 01°15' E 104°04'610.8
2018-May-18 14:28N 01°14' E 103°58'511.1
2018-May-18 14:00N 01°12' E 103°54'510.5
2018-May-18 13:29N 01°10' E 103°49'511.5
2018-May-18 13:01N 01°06' E 103°44'611.9
2018-May-18 12:30N 01°03' E 103°39'611.1
2018-May-18 12:00N 01°06' E 103°35'5 9.7
2018-May-18 11:30N 01°10' E 103°35'611.1
2018-May-18 11:00N 01°12' E 103°40'1 1.7
2018-May-18 10:28N 01°12' E 103°41'0 0.0
2018-May-18 10:01N 01°12' E 103°41'0 0.0
2018-May-18 09:30N 01°12' E 103°41'0 0.1
2018-May-18 09:00N 01°12' E 103°41'0 0.0
2018-May-18 08:30N 01°12' E 103°41'0 0.0
2018-May-18 08:00N 01°12' E 103°41'0 0.2
2018-May-18 07:24N 01°12' E 103°41'0 0.0
2018-May-18 07:00N 01°12' E 103°41'0 0.0
2018-May-18 06:23N 01°12' E 103°41'0 0.0
2018-May-18 06:00N 01°12' E 103°41'0 0.0
2018-May-18 05:31N 01°12' E 103°41'0 0.0
2018-May-18 04:58N 01°12' E 103°41'0 0.0
2018-May-18 04:30N 01°12' E 103°41'2 3.8
2018-May-18 04:00N 01°13' E 103°42'4 8.8
2018-May-18 03:30N 01°17' E 103°44'1 1.5
2018-May-18 03:00N 01°18' E 103°44'0 0.0
2018-May-18 02:28N 01°18' E 103°44'0 0.0
2018-May-18 01:58N 01°18' E 103°44'0 0.0
2018-May-18 01:25N 01°18' E 103°44'0 0.0
2018-May-18 00:40N 01°18' E 103°44'0 0.0
2018-May-18 00:30N 01°18' E 103°44'0 0.0
2018-May-18 00:00N 01°18' E 103°44'0 0.0
2018-May-17 23:24N 01°18' E 103°44'0 0.0
2018-May-17 22:58N 01°18' E 103°44'0 0.0
2018-May-17 22:19N 01°18' E 103°44'0 0.0
2018-May-17 21:51N 01°18' E 103°44'0 0.0
2018-May-17 21:30N 01°18' E 103°44'0 0.0
2018-May-17 20:54N 01°18' E 103°44'0 0.0
2018-May-17 20:28N 01°18' E 103°44'0 0.0
2018-May-17 19:45N 01°18' E 103°44'0 0.0
2018-May-17 19:28N 01°18' E 103°44'0 0.0
2018-May-17 18:58N 01°18' E 103°44'0 0.0
2018-May-17 18:25N 01°18' E 103°44'0 0.0
2018-May-17 18:00N 01°18' E 103°44'0 0.0
2018-May-17 17:30N 01°18' E 103°44'0 0.0
2018-May-17 17:00N 01°18' E 103°44'0 0.0
2018-May-17 16:25N 01°18' E 103°44'0 0.5
2018-May-17 15:58N 01°18' E 103°44'2 4.8
2018-May-17 15:30N 01°16' E 103°46'4 7.4
2018-May-17 15:00N 01°14' E 103°43'4 7.1
2018-May-17 14:30N 01°11' E 103°41'2 3.4
2018-May-17 14:00N 01°11' E 103°43'0 0.4
2018-May-17 13:29N 01°11' E 103°43'0 0.1
2018-May-17 12:58N 01°11' E 103°43'0 0.0
2018-May-17 12:29N 01°11' E 103°43'0 0.0
2018-May-17 11:58N 01°11' E 103°43'0 0.1
2018-May-17 11:25N 01°11' E 103°43'0 0.4
2018-May-17 11:00N 01°10' E 103°43'4 8.2
2018-May-17 10:31N 01°10' E 103°47'611.3
2018-May-17 10:00N 01°12' E 103°52'611.9
2018-May-17 09:29N 01°15' E 103°58'511.1
2018-May-17 08:59N 01°16' E 104°03'612.3
2018-May-17 08:30N 01°16' E 104°09'813.3
2018-May-17 07:56N 01°18' E 104°17'613.6
2018-May-17 07:30N 01°20' E 104°22'813.4
2018-May-17 06:55N 01°25' E 104°28'  
Track history (hours):
 
Tides and Currents Weather Stations Pressure Air Temp Water Temp Dewpoint Dewpoint Depression Visibility Wind Speed Wind Dir Waves Ship Positions

Sto Camellia

Last reported at 2018-May-20 07:53 UTC. Time now 2018-May-22 04:08 UTC.
Position N 01°20' E 103°19'.

Length 121 m; draft 6.7 m.

Type: Ship (hazmat cat C). MMSI: 440036000.

Date/timePositionNaut miles runAvg speedWind from/ knotsBaromVisibWave heightAir tempDewpointWater temp
2018-May-20 07:53N 01°20' E 103°19'511.6
2018-May-20 07:26N 01°17' E 103°23'511.1
2018-May-20 07:00N 01°14' E 103°27'611.7
2018-May-20 06:30N 01°12' E 103°32'612.1
2018-May-20 06:00N 01°11' E 103°38'612.3
2018-May-20 05:31N 01°08' E 103°44'612.7
2018-May-20 05:00N 01°11' E 103°50'713.3
2018-May-20 04:30N 01°14' E 103°56'713.2
2018-May-20 04:00N 01°16' E 104°02'5 8.8
2018-May-20 03:29N 01°19' E 104°05'4 8.7
2018-May-20 02:58N 01°22' E 104°02'4 9.1
2018-May-20 02:29N 01°24' E 103°58'4 8.6
2018-May-20 02:00N 01°26' E 103°54'0 0.7
2018-May-20 01:23N 01°26' E 103°54'0 0.0
2018-May-20 00:56N 01°26' E 103°54'0 0.0
2018-May-20 00:22N 01°26' E 103°54'0 0.0
2018-May-19 23:58N 01°26' E 103°54'0 0.0
2018-May-19 23:20N 01°26' E 103°54'0 0.0
2018-May-19 22:49N 01°26' E 103°54'0 0.0
2018-May-19 22:29N 01°26' E 103°54'0 0.0
2018-May-19 21:50N 01°26' E 103°54'0 0.0
2018-May-19 21:30N 01°26' E 103°54'0 0.0
2018-May-19 20:56N 01°26' E 103°54'0 0.0
2018-May-19 20:29N 01°26' E 103°54'0 0.0
2018-May-19 19:53N 01°26' E 103°54'0 0.0
2018-May-19 19:19N 01°26' E 103°54'0 0.0
2018-May-19 18:53N 01°26' E 103°54'0 0.0
2018-May-19 18:21N 01°26' E 103°54'0 0.5
2018-May-19 17:59N 01°26' E 103°54'4 7.7
2018-May-19 17:29N 01°24' E 103°57'510.2
2018-May-19 16:58N 01°22' E 104°02'4 9.0
2018-May-19 16:29N 01°19' E 104°06'1 2.0
2018-May-19 16:00N 01°19' E 104°06'0 0.0
2018-May-19 15:18N 01°19' E 104°06'0 0.0
2018-May-19 14:39N 01°19' E 104°06'0 0.1
2018-May-19 14:30N 01°19' E 104°06'0 0.0
2018-May-19 13:36N 01°19' E 104°06'0 0.1
2018-May-19 13:30N 01°19' E 104°06'0 0.1
2018-May-19 12:57N 01°19' E 104°06'0 0.1
2018-May-19 12:27N 01°19' E 104°07'0 0.1
2018-May-19 11:42N 01°19' E 104°07'0 0.0
2018-May-19 11:24N 01°19' E 104°07'0 0.0
2018-May-19 10:57N 01°19' E 104°07'0 0.1
2018-May-19 10:27N 01°19' E 104°07'0 0.2
2018-May-19 10:00N 01°19' E 104°06'0 0.0
2018-May-19 09:15N 01°19' E 104°06'0 0.0
2018-May-19 07:48N 01°19' E 104°06'0 0.0
2018-May-19 07:30N 01°19' E 104°06'0 0.0
2018-May-19 07:00N 01°19' E 104°06'0 0.0
2018-May-19 06:18N 01°19' E 104°06'0 0.0
2018-May-19 06:00N 01°19' E 104°06'0 0.1
2018-May-19 05:18N 01°19' E 104°07'0 0.1
2018-May-19 04:51N 01°19' E 104°07'0 0.0
2018-May-19 03:33N 01°19' E 104°07'0 0.0
2018-May-19 03:09N 01°19' E 104°07'0 0.0
2018-May-19 02:54N 01°19' E 104°07'0 0.0
2018-May-19 02:30N 01°19' E 104°07'0 0.0
2018-May-19 01:57N 01°19' E 104°07'0 0.1
2018-May-19 01:24N 01°19' E 104°07'0 0.0
2018-May-19 00:56N 01°19' E 104°07'0 0.1
2018-May-19 00:05N 01°19' E 104°07'0 0.0
2018-May-18 23:51N 01°19' E 104°07'0 0.0
2018-May-18 23:27N 01°19' E 104°07'0 0.0
2018-May-18 22:58N 01°19' E 104°07'0 0.0
2018-May-18 22:27N 01°19' E 104°07'0 0.0
2018-May-18 21:54N 01°19' E 104°07'0 0.0
2018-May-18 21:27N 01°19' E 104°07'0 0.0
2018-May-18 20:45N 01°19' E 104°07'0 0.0
2018-May-18 20:30N 01°19' E 104°07'0 0.0
2018-May-18 19:51N 01°19' E 104°07'0 0.0
2018-May-18 19:27N 01°19' E 104°07'0 0.0
2018-May-18 18:57N 01°19' E 104°07'0 0.0
2018-May-18 18:30N 01°19' E 104°07'0 0.1
2018-May-18 17:57N 01°19' E 104°07'0 0.0
2018-May-18 17:26N 01°19' E 104°07'0 0.1
2018-May-18 16:36N 01°19' E 104°07'0 0.1
2018-May-18 16:09N 01°19' E 104°06'0 0.0
2018-May-18 16:00N 01°19' E 104°06'1 1.3
2018-May-18 15:30N 01°19' E 104°06'4 7.9
2018-May-18 15:00N 01°15' E 104°04'610.8
2018-May-18 14:28N 01°14' E 103°58'511.1
2018-May-18 14:00N 01°12' E 103°54'510.5
2018-May-18 13:29N 01°10' E 103°49'511.5
2018-May-18 13:01N 01°06' E 103°44'611.9
2018-May-18 12:30N 01°03' E 103°39'611.1
2018-May-18 12:00N 01°06' E 103°35'5 9.7
2018-May-18 11:30N 01°10' E 103°35'611.1
2018-May-18 11:00N 01°12' E 103°40'1 1.7
2018-May-18 10:28N 01°12' E 103°41'0 0.0
2018-May-18 10:01N 01°12' E 103°41'0 0.0
2018-May-18 09:30N 01°12' E 103°41'0 0.1
2018-May-18 09:00N 01°12' E 103°41'0 0.0
2018-May-18 08:30N 01°12' E 103°41'0 0.0
2018-May-18 08:00N 01°12' E 103°41'0 0.2
2018-May-18 07:24N 01°12' E 103°41'0 0.0
2018-May-18 07:00N 01°12' E 103°41'0 0.0
2018-May-18 06:23N 01°12' E 103°41'0 0.0
2018-May-18 06:00N 01°12' E 103°41'0 0.0
2018-May-18 05:31N 01°12' E 103°41'0 0.0
2018-May-18 04:58N 01°12' E 103°41'0 0.0
2018-May-18 04:30N 01°12' E 103°41'2 3.8
2018-May-18 04:00N 01°13' E 103°42'4 8.8
2018-May-18 03:30N 01°17' E 103°44'1 1.5
2018-May-18 03:00N 01°18' E 103°44'0 0.0
2018-May-18 02:28N 01°18' E 103°44'0 0.0
2018-May-18 01:58N 01°18' E 103°44'0 0.0
2018-May-18 01:25N 01°18' E 103°44'0 0.0
2018-May-18 00:40N 01°18' E 103°44'0 0.0
2018-May-18 00:30N 01°18' E 103°44'0 0.0
2018-May-18 00:00N 01°18' E 103°44'0 0.0
2018-May-17 23:24N 01°18' E 103°44'0 0.0
2018-May-17 22:58N 01°18' E 103°44'0 0.0
2018-May-17 22:19N 01°18' E 103°44'0 0.0
2018-May-17 21:51N 01°18' E 103°44'0 0.0
2018-May-17 21:30N 01°18' E 103°44'0 0.0
2018-May-17 20:54N 01°18' E 103°44'0 0.0
2018-May-17 20:28N 01°18' E 103°44'0 0.0
2018-May-17 19:45N 01°18' E 103°44'0 0.0
2018-May-17 19:28N 01°18' E 103°44'0 0.0
2018-May-17 18:58N 01°18' E 103°44'0 0.0
2018-May-17 18:25N 01°18' E 103°44'0 0.0
2018-May-17 18:00N 01°18' E 103°44'0 0.0
2018-May-17 17:30N 01°18' E 103°44'0 0.0
2018-May-17 17:00N 01°18' E 103°44'0 0.0
2018-May-17 16:25N 01°18' E 103°44'0 0.5
2018-May-17 15:58N 01°18' E 103°44'2 4.8
2018-May-17 15:30N 01°16' E 103°46'4 7.4
2018-May-17 15:00N 01°14' E 103°43'4 7.1
2018-May-17 14:30N 01°11' E 103°41'2 3.4
2018-May-17 14:00N 01°11' E 103°43'0 0.4
2018-May-17 13:29N 01°11' E 103°43'0 0.1
2018-May-17 12:58N 01°11' E 103°43'0 0.0
2018-May-17 12:29N 01°11' E 103°43'0 0.0
2018-May-17 11:58N 01°11' E 103°43'0 0.1
2018-May-17 11:25N 01°11' E 103°43'0 0.4
2018-May-17 11:00N 01°10' E 103°43'4 8.2
2018-May-17 10:31N 01°10' E 103°47'611.3
2018-May-17 10:00N 01°12' E 103°52'611.9
2018-May-17 09:29N 01°15' E 103°58'511.1
2018-May-17 08:59N 01°16' E 104°03'612.3
2018-May-17 08:30N 01°16' E 104°09'813.3
2018-May-17 07:56N 01°18' E 104°17'613.6
2018-May-17 07:30N 01°20' E 104°22'813.4
2018-May-17 06:55N 01°25' E 104°28'  

Dump ship's entire track history